Terminal Aerodrome Forecast
Issued by NWS Charleston, SC

Home | Current Version | Previous Version | Text Only | Print | Product List | Glossary On
Versions: 1 2 3 4 5 6 7 8 9 10 11 12
000
FTUS42 KCHS 031120
TAFSAV
TAF
KSAV 031120Z 0312/0412 VRB03KT P6SM SKC
     FM031700 14008KT P6SM FEW060
     FM040200 VRB02KT P6SM SKC=

USA.gov is the U.S. government's official web portal to all federal, state and local government web resources and services.